Time;durP1;ratioP1;P1;durP2;ratioP2;P2;SDS_P1;SDS_P2;PMS_P1;PMS_P2;Temp;Humidity;BMP_temperature;BMP_pressure;BME280_temperature;BME280_humidity;BME280_pressure;Samples;Min_cycle;Max_cycle;Signal;HPM_P1;HPM_P2
2023/11/14 00:02:46;;;;;;;;;;;;;;;;;;;;;
2023/11/14 00:21:27;;;;;;;21.60;3.08;;;11.10;99.90;;;;;;4614492;31;20093;-95
2023/11/14 00:39:58;;;;;;;1.77;0.73;;;11.10;99.90;;;;;;5128735;27;20923;-69
2023/11/14 00:42:25;;;;;;;15.93;3.50;;;11.10;99.90;;;;;;5106458;28;20043;-69
2023/11/14 00:44:51;;;;;;;6.18;1.70;;;11.20;99.90;;;;;;5109098;28;20127;-69
2023/11/14 00:47:18;;;;;;;21.50;3.25;;;11.20;99.90;;;;;;5105039;28;20039;-69
2023/11/14 00:49:44;;;;;;;15.95;2.17;;;11.20;99.90;;;;;;5103791;28;20565;-69
2023/11/14 00:52:11;;;;;;;20.25;2.53;;;11.20;99.90;;;;;;5093961;28;20079;-69
2023/11/14 00:54:37;;;;;;;28.67;3.20;;;11.20;99.90;;;;;;5112228;28;20562;-69
2023/11/14 00:57:04;;;;;;;17.00;3.05;;;11.20;99.90;;;;;;5105023;28;20558;-69
2023/11/14 00:59:30;;;;;;;13.45;2.00;;;11.10;99.90;;;;;;5104125;28;20101;-68
2023/11/14 01:01:58;;;;;;;19.08;2.40;;;11.20;99.90;;;;;;5103630;28;20594;-69
2023/11/14 01:04:27;;;;;;;9.75;1.70;;;11.20;99.90;;;;;;5124971;28;20504;-69
2023/11/14 01:06:54;;;;;;;22.83;3.00;;;11.20;99.90;;;;;;5123451;28;20120;-69
2023/11/14 01:09:21;;;;;;;12.55;1.55;;;11.20;99.90;;;;;;5122730;28;20454;-68
2023/11/14 01:11:49;;;;;;;9.95;1.58;;;11.10;99.90;;;;;;5112314;28;20039;-69
2023/11/14 01:14:16;;;;;;;8.68;2.03;;;11.20;99.90;;;;;;5123907;28;20046;-68
2023/11/14 01:16:42;;;;;;;11.07;2.22;;;11.20;99.90;;;;;;5117733;28;20089;-68
2023/11/14 01:19:08;;;;;;;8.50;1.20;;;11.20;99.90;;;;;;5103623;28;20071;-69
2023/11/14 01:21:35;;;;;;;5.20;0.50;;;11.20;99.90;;;;;;5124237;28;20040;-69
2023/11/14 01:24:02;;;;;;;5.38;0.93;;;11.20;99.90;;;;;;5121717;28;20051;-69
2023/11/14 01:26:35;;;;;;;16.17;1.75;;;11.10;99.90;;;;;;5122010;28;20046;-69
2023/11/14 01:29:02;;;;;;;7.57;1.15;;;11.10;99.90;;;;;;5103050;28;20456;-68
2023/11/14 01:31:29;;;;;;;2.25;0.73;;;11.00;99.90;;;;;;5109738;28;20039;-69
2023/11/14 01:33:58;;;;;;;1.55;0.55;;;11.00;99.90;;;;;;5106009;28;20097;-68
2023/11/14 01:36:24;;;;;;;3.20;1.00;;;11.00;99.90;;;;;;5103361;28;20073;-68
2023/11/14 01:38:51;;;;;;;7.95;1.45;;;11.00;99.90;;;;;;5124645;28;20055;-69
2023/11/14 01:41:18;;;;;;;7.82;1.13;;;11.00;99.90;;;;;;5109783;28;20416;-68
2023/11/14 01:43:47;;;;;;;2.90;0.55;;;11.00;99.90;;;;;;5117934;28;20142;-68
2023/11/14 01:46:18;;;;;;;14.57;1.77;;;11.10;99.90;;;;;;5111448;28;20501;-68
2023/11/14 01:48:50;;;;;;;11.70;1.95;;;11.10;99.90;;;;;;5104302;28;20044;-68
2023/11/14 01:51:18;;;;;;;6.15;0.75;;;11.10;99.90;;;;;;5109087;28;20040;-68
2023/11/14 01:53:49;;;;;;;9.70;1.85;;;11.00;99.90;;;;;;5092289;28;20036;-68
2023/11/14 01:56:17;;;;;;;9.05;1.02;;;11.10;99.90;;;;;;5090473;28;20048;-69
2023/11/14 01:58:44;;;;;;;17.30;2.78;;;11.10;99.90;;;;;;5088327;28;20044;-68
2023/11/14 02:01:13;;;;;;;15.20;2.20;;;11.10;99.90;;;;;;5094609;28;20035;-69
2023/11/14 02:03:40;;;;;;;10.98;1.80;;;11.10;99.90;;;;;;5093665;28;20553;-68
2023/11/14 02:06:08;;;;;;;16.40;1.95;;;11.10;99.90;;;;;;5094249;28;20127;-68
2023/11/14 02:08:35;;;;;;;10.20;1.73;;;11.10;99.90;;;;;;5096568;28;20043;-68
2023/11/14 02:11:01;;;;;;;11.48;2.35;;;11.20;99.90;;;;;;5071621;28;20097;-68
2023/11/14 02:13:28;;;;;;;16.65;2.20;;;11.20;99.90;;;;;;5094143;28;20043;-68
2023/11/14 02:15:54;;;;;;;8.35;1.23;;;11.20;99.90;;;;;;5091260;28;20086;-68
2023/11/14 02:18:21;;;;;;;5.80;1.00;;;11.30;99.90;;;;;;5091969;28;20131;-68
2023/11/14 02:20:47;;;;;;;13.63;2.03;;;11.30;99.90;;;;;;5091450;28;20048;-68
2023/11/14 02:23:18;;;;;;;12.00;1.33;;;11.30;99.90;;;;;;5091452;28;20036;-68
2023/11/14 02:25:45;;;;;;;14.50;1.75;;;11.30;99.90;;;;;;5092079;28;20074;-67
2023/11/14 02:28:13;;;;;;;6.90;1.50;;;11.20;99.90;;;;;;5090366;28;20021;-68
2023/11/14 02:30:40;;;;;;;7.68;1.95;;;11.30;99.90;;;;;;5092061;28;20105;-68
2023/11/14 02:33:07;;;;;;;12.43;1.35;;;11.20;99.90;;;;;;5090319;28;20040;-68
2023/11/14 02:35:34;;;;;;;13.27;2.75;;;11.20;99.90;;;;;;5091036;28;20419;-68
2023/11/14 02:38:01;;;;;;;10.85;2.10;;;11.30;99.90;;;;;;5090821;28;20055;-68
2023/11/14 02:40:28;;;;;;;6.38;1.10;;;11.30;99.90;;;;;;5091467;28;20067;-68
2023/11/14 02:42:54;;;;;;;11.93;0.93;;;11.30;99.90;;;;;;5092030;28;20040;-68
2023/11/14 02:45:21;;;;;;;8.48;1.70;;;11.30;99.90;;;;;;5089973;28;20480;-68
2023/11/14 02:47:48;;;;;;;12.65;2.28;;;11.40;99.90;;;;;;5091597;28;20040;-68
2023/11/14 02:50:25;;;;;;;18.35;2.45;;;11.30;99.90;;;;;;5089326;28;20485;-68
2023/11/14 02:52:51;;;;;;;6.57;1.05;;;11.30;99.90;;;;;;5090981;28;20417;-68
2023/11/14 02:55:18;;;;;;;3.05;1.15;;;11.20;99.90;;;;;;5090464;28;20040;-68
2023/11/14 02:57:44;;;;;;;4.53;1.15;;;11.20;99.90;;;;;;5090086;28;20121;-68
2023/11/14 03:00:15;;;;;;;4.28;1.20;;;11.20;99.90;;;;;;5092986;28;20047;-68
2023/11/14 03:02:45;;;;;;;9.10;1.85;;;11.20;99.90;;;;;;5092157;28;20032;-68
2023/11/14 03:05:12;;;;;;;11.23;1.67;;;11.30;99.90;;;;;;5093141;28;20104;-67
2023/11/14 03:07:39;;;;;;;9.95;1.85;;;11.20;99.90;;;;;;5088586;28;20036;-68
2023/11/14 03:10:06;;;;;;;9.50;1.50;;;11.20;99.90;;;;;;5090381;28;20044;-68
2023/11/14 03:12:32;;;;;;;5.60;1.23;;;11.20;99.90;;;;;;5104273;28;20165;-68
2023/11/14 03:14:58;;;;;;;2.08;0.50;;;11.30;99.90;;;;;;5100050;28;20051;-68
2023/11/14 03:17:25;;;;;;;9.23;1.48;;;11.30;99.90;;;;;;5089201;28;20048;-68
2023/11/14 03:19:51;;;;;;;2.15;0.93;;;11.20;99.90;;;;;;5069605;28;20398;-68
2023/11/14 03:22:18;;;;;;;13.10;1.73;;;11.20;99.90;;;;;;5102588;28;20039;-68
2023/11/14 03:24:44;;;;;;;7.70;1.35;;;11.20;99.90;;;;;;5102107;28;20113;-68
2023/11/14 03:27:10;;;;;;;12.82;2.65;;;11.20;99.90;;;;;;5101026;28;20048;-68
2023/11/14 03:29:37;;;;;;;8.05;1.40;;;11.20;99.90;;;;;;5089268;28;20032;-68
2023/11/14 03:32:03;;;;;;;6.63;1.45;;;11.10;99.90;;;;;;5099252;28;20504;-68
2023/11/14 03:34:30;;;;;;;3.50;1.00;;;11.20;99.90;;;;;;5091961;28;20052;-67
2023/11/14 03:36:56;;;;;;;6.20;1.33;;;11.10;99.90;;;;;;5074889;28;20041;-68
2023/11/14 03:39:23;;;;;;;11.75;0.90;;;11.10;99.90;;;;;;5108557;28;20043;-68
2023/11/14 03:41:50;;;;;;;2.20;0.80;;;11.10;99.90;;;;;;5083072;28;20050;-68
2023/11/14 03:44:16;;;;;;;4.40;0.73;;;11.20;99.90;;;;;;5088354;28;20036;-68
2023/11/14 03:46:43;;;;;;;3.88;1.23;;;11.20;99.90;;;;;;5086467;28;20048;-68
2023/11/14 03:49:09;;;;;;;4.13;0.85;;;11.20;99.90;;;;;;5088663;28;20041;-68
2023/11/14 03:51:35;;;;;;;10.93;1.75;;;11.30;99.90;;;;;;5086787;28;20044;-68
2023/11/14 03:54:02;;;;;;;0.95;0.75;;;11.30;99.90;;;;;;5088068;28;20047;-68
2023/11/14 03:56:28;;;;;;;4.25;1.33;;;11.20;99.90;;;;;;5088134;28;20490;-68
2023/11/14 03:58:55;;;;;;;2.58;0.73;;;11.20;99.90;;;;;;5087039;28;20103;-68
2023/11/14 04:01:21;;;;;;;18.67;2.75;;;11.20;99.90;;;;;;5092989;28;20563;-67
2023/11/14 04:03:48;;;;;;;2.90;0.82;;;11.30;99.90;;;;;;5101504;28;20048;-68
2023/11/14 04:06:14;;;;;;;4.40;1.27;;;11.20;99.90;;;;;;5088176;28;20048;-68
2023/11/14 04:08:41;;;;;;;13.80;2.33;;;11.20;99.90;;;;;;5086479;28;20524;-68
2023/11/14 04:11:07;;;;;;;1.98;0.80;;;11.20;99.90;;;;;;5092621;28;20374;-69
2023/11/14 04:13:36;;;;;;;2.85;0.70;;;11.20;99.90;;;;;;5107755;28;20073;-69
2023/11/14 04:16:03;;;;;;;1.70;1.17;;;11.20;99.90;;;;;;5070862;28;20044;-69
2023/11/14 04:18:29;;;;;;;1.58;0.60;;;11.10;99.90;;;;;;5070011;28;20051;-69
2023/11/14 04:20:58;;;;;;;6.60;1.63;;;11.10;99.90;;;;;;5102132;28;20075;-68
2023/11/14 04:23:25;;;;;;;5.88;1.30;;;11.10;99.90;;;;;;5099741;28;20079;-68
2023/11/14 04:25:51;;;;;;;6.63;1.55;;;11.10;99.90;;;;;;5086115;28;20745;-68
2023/11/14 04:28:18;;;;;;;10.32;1.67;;;11.10;99.90;;;;;;5087396;28;20062;-68
2023/11/14 04:30:44;;;;;;;6.13;1.33;;;11.10;99.90;;;;;;5087303;28;20047;-68
2023/11/14 04:33:11;;;;;;;7.95;1.55;;;11.20;99.90;;;;;;5106013;28;20605;-68
2023/11/14 04:35:37;;;;;;;4.57;1.02;;;11.20;99.90;;;;;;5096990;28;20040;-68
2023/11/14 04:38:04;;;;;;;14.75;1.92;;;11.20;99.90;;;;;;5088686;28;20056;-68
2023/11/14 04:40:30;;;;;;;19.25;2.95;;;11.20;99.90;;;;;;5107730;28;20035;-68
2023/11/14 04:42:57;;;;;;;5.35;1.42;;;11.20;99.90;;;;;;5090336;28;20039;-68
2023/11/14 04:45:23;;;;;;;1.60;0.30;;;11.20;99.90;;;;;;5100398;28;20047;-68
2023/11/14 04:47:50;;;;;;;0.55;0.55;;;11.20;99.90;;;;;;5092272;28;20048;-68
2023/11/14 04:50:22;;;;;;;3.10;0.63;;;11.20;99.90;;;;;;5086936;28;20044;-68
2023/11/14 04:52:49;;;;;;;8.35;1.45;;;11.20;99.90;;;;;;5087195;28;20140;-68
2023/11/14 04:55:15;;;;;;;7.35;1.30;;;11.20;99.90;;;;;;5085997;28;20052;-68
2023/11/14 04:57:42;;;;;;;9.40;2.10;;;11.20;99.90;;;;;;5099560;28;20048;-69
2023/11/14 05:00:09;;;;;;;8.60;1.23;;;11.20;99.90;;;;;;5074745;28;20118;-69
2023/11/14 05:02:36;;;;;;;4.43;1.05;;;11.30;99.90;;;;;;5073566;28;20032;-69
2023/11/14 05:05:02;;;;;;;1.90;0.85;;;11.20;99.90;;;;;;5086483;28;20074;-69
2023/11/14 05:07:29;;;;;;;7.88;1.45;;;11.20;99.90;;;;;;5087496;28;20121;-68
2023/11/14 05:09:55;;;;;;;10.82;1.50;;;11.20;99.90;;;;;;5086869;28;20528;-68
2023/11/14 05:12:21;;;;;;;0.60;0.60;;;11.20;99.90;;;;;;5101296;28;20113;-68
2023/11/14 05:14:48;;;;;;;8.48;1.77;;;11.10;99.90;;;;;;5099893;28;20533;-68
2023/11/14 05:17:14;;;;;;;10.95;2.10;;;11.10;99.90;;;;;;5067762;28;20052;-68
2023/11/14 05:19:42;;;;;;;3.00;0.82;;;11.20;99.90;;;;;;5086716;28;20051;-69
2023/11/14 05:22:08;;;;;;;1.17;0.60;;;11.20;99.90;;;;;;5092936;28;20035;-69
2023/11/14 05:24:35;;;;;;;21.05;3.03;;;11.20;99.90;;;;;;5103255;28;20109;-69
2023/11/14 05:27:03;;;;;;;1.80;0.43;;;11.10;99.90;;;;;;5090595;28;20123;-69
2023/11/14 05:29:29;;;;;;;2.20;0.57;;;11.10;99.90;;;;;;5092302;28;20071;-69
2023/11/14 05:31:56;;;;;;;19.83;2.70;;;11.10;99.90;;;;;;5104776;28;20384;-70
2023/11/14 05:34:23;;;;;;;0.85;0.50;;;11.10;99.90;;;;;;5095683;28;20044;-69
2023/11/14 05:36:49;;;;;;;14.88;1.63;;;11.10;99.90;;;;;;5101738;28;20055;-69
2023/11/14 05:39:16;;;;;;;10.75;2.20;;;11.10;99.90;;;;;;5102048;28;20044;-69
2023/11/14 05:41:42;;;;;;;3.53;1.33;;;11.10;99.90;;;;;;5097502;28;20044;-69
2023/11/14 05:44:09;;;;;;;2.95;1.00;;;11.10;99.90;;;;;;5108110;28;20492;-68
2023/11/14 05:46:35;;;;;;;2.85;1.00;;;11.10;99.90;;;;;;5091697;28;20044;-69
2023/11/14 05:49:02;;;;;;;2.88;0.68;;;11.10;99.90;;;;;;5092290;28;20054;-69
2023/11/14 05:51:30;;;;;;;5.38;1.23;;;11.10;99.90;;;;;;5102907;28;20202;-69
2023/11/14 05:53:56;;;;;;;0.70;0.52;;;11.10;99.90;;;;;;5098101;28;20513;-69
2023/11/14 05:56:23;;;;;;;4.53;1.38;;;11.10;99.90;;;;;;5100594;28;20115;-69
2023/11/14 05:58:49;;;;;;;4.57;1.52;;;11.10;99.90;;;;;;5106632;28;20501;-68
2023/11/14 06:01:16;;;;;;;1.17;0.80;;;11.10;99.90;;;;;;5102925;28;20044;-69
2023/11/14 06:03:42;;;;;;;2.80;1.17;;;11.10;99.90;;;;;;5104240;28;20447;-69
2023/11/14 06:06:09;;;;;;;12.13;0.85;;;11.20;99.90;;;;;;5099994;28;20048;-69
2023/11/14 06:08:36;;;;;;;9.13;1.10;;;11.10;99.90;;;;;;5088630;28;20111;-69
2023/11/14 06:11:02;;;;;;;14.38;3.05;;;11.20;99.90;;;;;;5089871;28;20040;-69
2023/11/14 06:13:29;;;;;;;9.48;1.40;;;11.20;99.90;;;;;;5079655;28;20052;-69
2023/11/14 06:15:55;;;;;;;14.45;1.92;;;11.20;99.90;;;;;;5100681;28;20055;-69
2023/11/14 06:18:22;;;;;;;1.15;0.68;;;11.20;99.90;;;;;;5106220;28;20036;-69
2023/11/14 06:20:48;;;;;;;9.80;1.40;;;11.30;99.90;;;;;;5076224;28;20054;-69
2023/11/14 06:23:16;;;;;;;4.43;0.95;;;11.20;99.90;;;;;;5110499;28;20036;-69
2023/11/14 06:25:42;;;;;;;10.98;1.85;;;11.20;99.90;;;;;;5095155;28;20134;-69
2023/11/14 06:28:09;;;;;;;2.83;1.05;;;11.30;99.90;;;;;;5094921;28;20535;-69
2023/11/14 06:30:35;;;;;;;5.63;1.20;;;11.20;99.90;;;;;;5097244;28;20040;-69
2023/11/14 06:33:03;;;;;;;16.63;2.45;;;11.20;99.90;;;;;;5104340;28;20047;-69
2023/11/14 06:35:29;;;;;;;1.65;0.98;;;11.20;99.90;;;;;;5089703;28;20493;-69
2023/11/14 06:37:56;;;;;;;11.60;1.88;;;11.10;99.90;;;;;;5087888;28;20052;-69
2023/11/14 06:40:23;;;;;;;1.40;0.73;;;11.00;99.90;;;;;;5109543;28;20044;-68
2023/11/14 06:42:50;;;;;;;1.38;0.40;;;11.00;99.90;;;;;;5093923;28;20131;-68
2023/11/14 06:45:17;;;;;;;4.35;1.05;;;11.10;99.90;;;;;;5089903;28;20044;-69
2023/11/14 06:47:44;;;;;;;5.00;0.80;;;11.10;99.90;;;;;;5088061;28;20456;-69
2023/11/14 06:50:10;;;;;;;3.58;1.08;;;11.20;99.90;;;;;;5102746;28;20086;-68
2023/11/14 06:52:37;;;;;;;7.22;1.08;;;11.20;99.90;;;;;;5097931;28;20036;-69
2023/11/14 06:55:04;;;;;;;6.70;1.45;;;11.20;99.90;;;;;;5088153;28;20043;-69
2023/11/14 06:57:31;;;;;;;5.13;1.45;;;11.20;99.90;;;;;;5071781;28;20040;-68
2023/11/14 07:00:03;;;;;;;3.13;1.27;;;11.20;99.90;;;;;;5094407;28;20051;-69
2023/11/14 07:02:30;;;;;;;13.35;2.63;;;11.20;99.90;;;;;;5095436;28;20044;-68
2023/11/14 07:04:57;;;;;;;1.85;0.70;;;11.30;99.90;;;;;;5087072;28;20126;-69
2023/11/14 07:07:23;;;;;;;14.95;2.00;;;11.30;99.90;;;;;;5089257;28;20040;-69
2023/11/14 07:09:50;;;;;;;2.47;0.65;;;11.30;99.90;;;;;;5095019;28;20108;-69
2023/11/14 07:12:16;;;;;;;14.18;2.60;;;11.20;99.90;;;;;;5087786;28;20512;-69
2023/11/14 07:14:43;;;;;;;6.57;1.38;;;11.20;99.90;;;;;;5089090;28;20052;-69
2023/11/14 07:17:09;;;;;;;5.93;1.38;;;11.20;99.90;;;;;;5087081;28;20033;-69
2023/11/14 07:19:36;;;;;;;12.25;2.58;;;11.10;99.90;;;;;;5093011;28;20032;-69
2023/11/14 07:22:02;;;;;;;3.63;1.13;;;11.10;99.90;;;;;;5090657;28;20134;-69
2023/11/14 07:24:29;;;;;;;12.30;1.90;;;11.20;99.90;;;;;;5088745;28;20036;-69
2023/11/14 07:26:55;;;;;;;13.55;1.80;;;11.10;99.90;;;;;;5069374;28;20564;-69
2023/11/14 07:29:22;;;;;;;3.45;1.00;;;11.20;99.90;;;;;;5088323;28;20031;-69
2023/11/14 07:31:48;;;;;;;4.43;1.05;;;11.10;99.90;;;;;;5097266;28;20501;-69
2023/11/14 07:34:14;;;;;;;9.90;1.50;;;11.10;99.90;;;;;;5072380;28;20082;-69
2023/11/14 07:36:41;;;;;;;7.70;1.50;;;11.20;99.90;;;;;;5092395;28;20074;-68
2023/11/14 07:39:07;;;;;;;2.53;1.17;;;11.20;99.90;;;;;;5098219;28;20063;-68
2023/11/14 07:41:34;;;;;;;3.88;1.08;;;11.20;99.90;;;;;;5090726;28;20036;-69
2023/11/14 07:44:00;;;;;;;4.25;1.25;;;11.30;99.90;;;;;;5098022;28;20202;-69
2023/11/14 07:46:27;;;;;;;4.70;1.20;;;11.20;99.90;;;;;;5106354;28;20527;-68
2023/11/14 07:48:53;;;;;;;4.35;1.17;;;11.30;99.90;;;;;;5096271;28;20036;-68
2023/11/14 07:51:20;;;;;;;5.53;0.70;;;11.30;99.90;;;;;;5089540;28;20493;-69
2023/11/14 07:53:47;;;;;;;7.63;1.45;;;11.30;99.90;;;;;;5102428;28;20044;-68
2023/11/14 07:56:14;;;;;;;4.13;0.60;;;11.30;99.90;;;;;;5086252;28;20055;-68
2023/11/14 07:58:41;;;;;;;6.65;0.75;;;11.30;99.90;;;;;;5088019;28;20076;-68
2023/11/14 08:01:07;;;;;;;5.63;1.33;;;11.30;99.90;;;;;;5088775;28;20060;-68
2023/11/14 08:03:34;;;;;;;9.63;2.33;;;11.40;99.90;;;;;;5088293;28;20519;-68
2023/11/14 08:06:01;;;;;;;11.35;1.75;;;11.30;99.90;;;;;;5088768;28;20043;-68
2023/11/14 08:08:28;;;;;;;10.60;2.38;;;11.30;99.90;;;;;;5088340;28;20488;-68
2023/11/14 08:10:54;;;;;;;9.20;1.70;;;11.30;99.90;;;;;;5101584;28;20081;-68
2023/11/14 08:13:20;;;;;;;20.80;2.97;;;11.40;99.90;;;;;;5093658;28;20048;-68
2023/11/14 08:15:47;;;;;;;6.00;0.90;;;11.40;99.90;;;;;;5101890;28;20039;-68
2023/11/14 08:18:14;;;;;;;19.88;2.00;;;11.40;99.90;;;;;;5085818;28;20055;-68
2023/11/14 08:20:40;;;;;;;17.48;3.17;;;11.50;99.90;;;;;;5091857;28;20058;-69
2023/11/14 08:23:07;;;;;;;20.00;2.85;;;11.50;99.90;;;;;;5090754;28;20040;-69
2023/11/14 08:25:33;;;;;;;12.27;2.15;;;11.50;99.90;;;;;;5077239;28;20509;-68
2023/11/14 08:28:00;;;;;;;20.33;3.10;;;11.50;99.90;;;;;;5102273;28;20062;-68
2023/11/14 08:30:29;;;;;;;7.97;1.23;;;11.50;99.90;;;;;;5086954;28;20074;-68
2023/11/14 08:32:55;;;;;;;6.50;1.07;;;11.50;99.90;;;;;;5097739;28;20100;-68
2023/11/14 08:35:25;;;;;;;7.85;1.92;;;11.60;99.90;;;;;;5085911;28;20405;-68
2023/11/14 08:37:55;;;;;;;;;;;11.60;99.90;;;;;;5087957;28;20056;-68
2023/11/14 08:40:24;;;;;;;2.40;1.10;;;11.70;99.90;;;;;;5086830;28;19986;-68
2023/11/14 08:42:53;;;;;;;31.08;3.90;;;11.80;99.90;;;;;;5070145;28;20070;-68
2023/11/14 08:45:20;;;;;;;10.93;1.98;;;11.80;99.90;;;;;;5104595;28;20054;-68
2023/11/14 08:47:48;;;;;;;12.07;1.58;;;11.80;99.90;;;;;;5080022;28;20759;-68
2023/11/14 08:50:16;;;;;;;3.58;1.15;;;11.80;99.90;;;;;;5087013;28;20120;-68
2023/11/14 08:52:42;;;;;;;23.45;2.60;;;11.70;99.90;;;;;;5092291;28;20040;-68
2023/11/14 08:55:09;;;;;;;4.63;0.80;;;11.80;99.90;;;;;;5087634;28;20111;-68
2023/11/14 08:57:36;;;;;;;3.78;1.33;;;11.80;99.90;;;;;;5087104;28;20118;-68
2023/11/14 09:00:08;;;;;;;9.45;1.67;;;11.90;99.90;;;;;;5087467;28;20055;-68
2023/11/14 09:02:34;;;;;;;13.82;3.08;;;11.90;99.90;;;;;;5101564;28;20047;-68
2023/11/14 09:05:01;;;;;;;4.93;1.08;;;11.80;99.90;;;;;;5097579;28;20118;-67
2023/11/14 09:07:28;;;;;;;3.20;0.88;;;11.90;99.90;;;;;;5096264;28;20914;-68
2023/11/14 09:09:54;;;;;;;11.25;2.33;;;11.90;99.90;;;;;;5099258;28;20051;-68
2023/11/14 09:12:21;;;;;;;19.65;2.83;;;12.00;99.90;;;;;;5094927;28;20137;-68
2023/11/14 09:14:48;;;;;;;12.15;1.67;;;12.00;99.90;;;;;;5092524;28;20040;-68
2023/11/14 09:17:14;;;;;;;22.00;3.00;;;12.00;99.90;;;;;;5096309;28;20039;-68
2023/11/14 09:19:41;;;;;;;23.15;3.25;;;11.90;99.90;;;;;;5093640;28;20087;-67
2023/11/14 09:22:07;;;;;;;11.32;2.40;;;11.90;99.90;;;;;;5092205;28;20098;-68
2023/11/14 09:24:34;;;;;;;6.78;1.48;;;11.90;99.90;;;;;;5105435;28;20043;-68
2023/11/14 09:27:00;;;;;;;2.97;1.15;;;11.90;99.90;;;;;;5080670;28;20048;-68
2023/11/14 09:29:27;;;;;;;15.57;1.55;;;11.90;99.90;;;;;;5097779;28;20038;-68
2023/11/14 09:31:54;;;;;;;1.90;0.35;;;11.90;99.90;;;;;;5074479;28;20052;-67
2023/11/14 09:34:20;;;;;;;3.53;1.15;;;11.90;99.90;;;;;;5096871;28;20028;-68
2023/11/14 09:36:47;;;;;;;10.10;1.63;;;12.00;99.90;;;;;;5098219;28;20121;-68
2023/11/14 09:39:15;;;;;;;9.18;1.38;;;12.10;99.90;;;;;;5095103;28;20059;-68
2023/11/14 09:41:41;;;;;;;24.48;3.80;;;12.20;99.90;;;;;;5091666;28;20138;-67
2023/11/14 09:44:08;;;;;;;15.60;1.80;;;12.20;99.90;;;;;;5094573;28;20082;-68
2023/11/14 09:46:37;;;;;;;7.72;1.13;;;12.40;99.90;;;;;;5104736;28;20505;-67
2023/11/14 09:49:04;;;;;;;4.95;1.65;;;12.40;99.90;;;;;;5100554;28;20472;-67
2023/11/14 09:51:32;;;;;;;8.55;1.48;;;12.40;99.90;;;;;;5088818;28;20046;-67
2023/11/14 09:53:59;;;;;;;41.35;3.67;;;12.50;99.90;;;;;;5089705;28;20072;-67
2023/11/14 09:56:26;;;;;;;4.18;1.38;;;12.60;99.90;;;;;;5102180;28;20567;-67
2023/11/14 09:58:55;;;;;;;17.83;3.47;;;12.60;99.90;;;;;;5093933;28;20051;-68
2023/11/14 10:01:23;;;;;;;12.47;1.17;;;12.60;99.90;;;;;;5074491;28;20082;-68
2023/11/14 10:03:50;;;;;;;25.17;3.63;;;12.50;99.90;;;;;;5090147;28;20044;-67
2023/11/14 10:06:17;;;;;;;9.07;1.23;;;12.50;99.90;;;;;;5098399;28;20043;-68
2023/11/14 10:08:44;;;;;;;5.38;1.20;;;12.40;99.90;;;;;;5095058;28;20040;-68
2023/11/14 10:11:11;;;;;;;5.95;0.82;;;12.40;99.90;;;;;;5102410;28;20047;-67
2023/11/14 10:13:39;;;;;;;16.60;2.53;;;12.40;99.90;;;;;;5108649;28;20443;-68
2023/11/14 10:16:19;;;;;;;2.78;0.90;;;12.40;99.90;;;;;;5110138;28;20047;-67
2023/11/14 10:18:47;;;;;;;5.43;1.05;;;12.40;99.90;;;;;;5088824;28;20516;-67
2023/11/14 10:21:30;;;;;;;16.98;3.10;;;12.40;99.90;;;;;;5097950;28;20071;-68
2023/11/14 10:23:58;;;;;;;10.73;1.02;;;12.30;99.90;;;;;;5103027;28;20160;-68
2023/11/14 10:26:26;;;;;;;6.38;0.75;;;12.30;99.90;;;;;;5099334;28;20102;-68
2023/11/14 10:28:55;;;;;;;5.63;0.95;;;12.20;99.90;;;;;;5108287;28;20052;-69
2023/11/14 10:31:36;;;;;;;11.35;1.85;;;12.20;99.90;;;;;;5101116;28;20075;-69
2023/11/14 10:34:08;;;;;;;9.38;1.45;;;12.10;99.90;;;;;;5110073;28;20047;-69
2023/11/14 10:36:54;;;;;;;9.07;1.77;;;11.90;99.90;;;;;;5093320;28;20048;-70
2023/11/14 10:39:21;;;;;;;6.80;1.25;;;11.60;99.90;;;;;;5092445;28;20052;-70
2023/11/14 10:41:49;;;;;;;3.88;0.80;;;11.30;99.90;;;;;;5090796;28;20652;-69
2023/11/14 10:44:16;;;;;;;16.65;3.05;;;11.20;99.90;;;;;;5088018;28;20108;-69
2023/11/14 10:46:58;;;;;;;2.05;1.10;;;11.10;99.90;;;;;;5103594;28;20051;-69
2023/11/14 10:49:26;;;;;;;4.03;0.80;;;11.10;99.90;;;;;;5077094;28;20040;-69
2023/11/14 10:51:54;;;;;;;7.63;2.22;;;11.10;99.90;;;;;;5088308;28;20043;-68
2023/11/14 10:54:21;;;;;;;9.43;1.60;;;11.10;99.90;;;;;;5098533;28;20044;-69
2023/11/14 10:56:48;;;;;;;4.43;1.00;;;11.20;99.90;;;;;;5088682;28;20052;-69
2023/11/14 10:59:15;;;;;;;8.63;1.40;;;11.30;99.90;;;;;;5092213;28;20046;-69
2023/11/14 11:01:46;;;;;;;4.45;1.10;;;11.30;99.90;;;;;;5089049;28;20071;-70
2023/11/14 11:04:18;;;;;;;14.10;2.38;;;11.20;99.90;;;;;;5093173;28;20043;-68
2023/11/14 11:06:45;;;;;;;14.32;2.70;;;11.20;99.90;;;;;;5091705;28;20474;-68
2023/11/14 11:09:15;;;;;;;5.43;1.33;;;11.20;99.90;;;;;;5091853;28;20396;-68
2023/11/14 11:11:51;;;;;;;1.15;0.17;;;11.10;99.90;;;;;;5108358;28;20044;-68
2023/11/14 11:14:21;;;;;;;5.43;1.17;;;11.10;99.90;;;;;;5092117;28;20135;-69
2023/11/14 11:16:52;;;;;;;5.53;1.38;;;11.10;99.90;;;;;;5098761;28;20059;-68
2023/11/14 11:19:21;;;;;;;2.33;0.60;;;11.10;99.90;;;;;;5087546;28;20428;-68
2023/11/14 11:22:15;;;;;;;10.82;2.00;;;11.10;99.90;;;;;;5088189;28;20040;-69
2023/11/14 11:25:27;;;;;;;21.15;3.75;;;11.10;99.90;;;;;;5088651;28;20051;-69
2023/11/14 11:27:54;;;;;;;19.30;2.92;;;11.00;99.90;;;;;;5063665;28;20080;-69
2023/11/14 11:30:21;;;;;;;15.18;2.83;;;11.00;99.90;;;;;;5090825;28;20460;-70
2023/11/14 11:32:53;;;;;;;17.83;2.97;;;10.90;99.90;;;;;;5092776;28;20044;-69
2023/11/14 11:35:20;;;;;;;16.55;2.95;;;10.80;99.90;;;;;;5091669;28;20050;-69
2023/11/14 11:38:12;;;;;;;4.38;0.93;;;10.80;99.90;;;;;;5093341;28;20066;-69
2023/11/14 11:41:06;;;;;;;19.90;4.00;;;10.70;99.90;;;;;;5092607;28;20488;-69
2023/11/14 11:43:38;;;;;;;18.15;3.55;;;10.70;99.90;;;;;;5083992;28;20047;-69
2023/11/14 11:46:35;;;;;;;20.92;2.97;;;10.70;99.90;;;;;;5093818;28;20426;-69
2023/11/14 11:49:11;;;;;;;24.13;3.63;;;10.70;99.90;;;;;;5086124;28;20166;-69
2023/11/14 11:51:46;;;;;;;30.65;4.78;;;10.80;99.90;;;;;;5104264;28;20043;-69
2023/11/14 11:54:28;;;;;;;7.38;1.33;;;10.80;99.90;;;;;;5068795;28;20059;-69
2023/11/14 11:57:10;;;;;;;22.55;3.67;;;10.80;99.90;;;;;;5090946;28;20035;-69
2023/11/14 11:59:40;;;;;;;4.45;1.13;;;10.80;99.90;;;;;;5096614;28;20094;-69
2023/11/14 12:02:23;;;;;;;18.88;3.53;;;10.80;99.90;;;;;;5100615;28;20054;-69
2023/11/14 12:04:55;;;;;;;15.70;2.65;;;10.80;99.90;;;;;;5096221;28;20040;-69
2023/11/14 12:07:22;;;;;;;9.27;1.75;;;10.70;99.90;;;;;;5088432;28;20044;-68
2023/11/14 12:09:53;;;;;;;11.75;2.42;;;10.70;99.90;;;;;;5093049;28;20048;-69
2023/11/14 12:12:19;;;;;;;17.77;2.75;;;10.60;99.90;;;;;;5088445;28;20046;-69
2023/11/14 12:14:46;;;;;;;6.15;0.82;;;10.60;99.90;;;;;;5068755;28;20921;-69
2023/11/14 12:17:13;;;;;;;0.20;0.20;;;10.60;99.90;;;;;;5091270;28;20055;-69
2023/11/14 12:19:40;;;;;;;1.08;0.35;;;10.50;99.90;;;;;;5068306;28;20040;-69
2023/11/14 12:22:07;;;;;;;2.25;0.38;;;10.40;99.90;;;;;;5087016;28;20113;-69
2023/11/14 12:24:34;;;;;;;0.95;0.30;;;10.40;99.90;;;;;;5089747;28;20107;-69
2023/11/14 12:27:00;;;;;;;3.80;0.75;;;10.40;99.90;;;;;;5088665;28;20446;-69
2023/11/14 12:29:26;;;;;;;7.32;1.73;;;10.50;99.90;;;;;;5098337;28;20035;-68
2023/11/14 12:31:54;;;;;;;3.30;0.73;;;10.50;99.90;;;;;;5087347;28;20047;-69
2023/11/14 12:34:30;;;;;;;1.35;0.50;;;10.50;99.90;;;;;;5093539;28;20040;-69
2023/11/14 12:37:09;;;;;;;10.35;2.40;;;10.60;99.90;;;;;;5089388;28;20382;-69
2023/11/14 12:39:36;;;;;;;13.68;2.42;;;10.60;99.90;;;;;;5090499;28;20048;-68
2023/11/14 12:42:04;;;;;;;9.27;1.65;;;10.60;99.90;;;;;;5091064;28;20048;-68
2023/11/14 12:44:33;;;;;;;15.98;2.72;;;10.70;99.90;;;;;;5090023;28;20039;-69
2023/11/14 12:46:59;;;;;;;6.82;1.33;;;10.70;99.90;;;;;;5101539;28;20078;-68
2023/11/14 12:49:30;;;;;;;23.52;3.15;;;10.90;99.90;;;;;;5089091;28;20036;-68
2023/11/14 12:52:01;;;;;;;25.80;3.63;;;10.90;99.90;;;;;;5090208;28;20062;-68
2023/11/14 12:54:27;;;;;;;30.52;4.60;;;11.00;99.90;;;;;;5093226;28;20039;-69
2023/11/14 12:56:54;;;;;;;21.02;2.72;;;11.10;99.90;;;;;;5090242;28;20517;-68
2023/11/14 12:59:21;;;;;;;19.55;2.63;;;11.10;99.90;;;;;;5089739;28;20265;-68
2023/11/14 13:01:49;;;;;;;24.13;4.07;;;11.20;99.90;;;;;;5075138;28;20188;-68
2023/11/14 13:04:15;;;;;;;27.13;3.55;;;11.20;99.90;;;;;;5090219;28;20040;-69
2023/11/14 13:06:47;;;;;;;37.88;4.53;;;11.30;99.90;;;;;;5090256;28;20050;-68
2023/11/14 13:09:19;;;;;;;25.25;3.22;;;11.30;99.90;;;;;;5092858;28;20439;-68
2023/11/14 13:11:45;;;;;;;28.90;3.70;;;11.30;99.90;;;;;;5096750;28;20397;-68
2023/11/14 13:14:13;;;;;;;28.70;4.32;;;11.40;99.90;;;;;;5068281;28;20044;-68
2023/11/14 13:16:39;;;;;;;31.92;4.93;;;11.40;99.90;;;;;;5052293;28;20043;-68
2023/11/14 13:19:06;;;;;;;31.33;3.85;;;11.40;99.90;;;;;;5068490;28;20040;-68
2023/11/14 13:21:33;;;;;;;33.58;4.75;;;11.40;99.90;;;;;;5087220;28;20074;-68